sensor_id;sensor_type;location;lat;lon;timestamp;P1;durP1;ratioP1;P2;durP2;ratioP2
63782;SDS011;49925;52.522;5.732;2023-04-24T00:01:23;5.90;;;3.70;;
63782;SDS011;49925;52.522;5.732;2023-04-24T00:03:50;6.35;;;3.72;;
63782;SDS011;49925;52.522;5.732;2023-04-24T00:06:17;6.68;;;4.07;;
63782;SDS011;49925;52.522;5.732;2023-04-24T00:08:44;5.82;;;3.65;;
63782;SDS011;49925;52.522;5.732;2023-04-24T00:11:12;9.13;;;4.20;;
63782;SDS011;49925;52.522;5.732;2023-04-24T00:13:39;7.53;;;4.35;;
63782;SDS011;49925;52.522;5.732;2023-04-24T00:16:06;5.72;;;3.83;;
63782;SDS011;49925;52.522;5.732;2023-04-24T00:18:33;6.20;;;4.22;;
63782;SDS011;49925;52.522;5.732;2023-04-24T00:21:00;5.95;;;4.63;;
63782;SDS011;49925;52.522;5.732;2023-04-24T00:23:27;10.20;;;4.85;;
63782;SDS011;49925;52.522;5.732;2023-04-24T00:25:55;7.35;;;4.82;;
63782;SDS011;49925;52.522;5.732;2023-04-24T00:28:22;17.38;;;5.32;;
63782;SDS011;49925;52.522;5.732;2023-04-24T00:30:49;7.70;;;5.63;;
63782;SDS011;49925;52.522;5.732;2023-04-24T00:33:16;10.05;;;6.10;;
63782;SDS011;49925;52.522;5.732;2023-04-24T00:35:43;8.18;;;6.13;;
63782;SDS011;49925;52.522;5.732;2023-04-24T00:38:10;8.63;;;6.97;;
63782;SDS011;49925;52.522;5.732;2023-04-24T00:40:37;9.60;;;6.85;;
63782;SDS011;49925;52.522;5.732;2023-04-24T00:43:04;10.23;;;7.80;;
63782;SDS011;49925;52.522;5.732;2023-04-24T00:45:34;10.43;;;7.93;;
63782;SDS011;49925;52.522;5.732;2023-04-24T00:48:02;16.38;;;9.23;;
63782;SDS011;49925;52.522;5.732;2023-04-24T00:50:32;12.05;;;9.23;;
63782;SDS011;49925;52.522;5.732;2023-04-24T00:52:59;13.18;;;8.98;;
63782;SDS011;49925;52.522;5.732;2023-04-24T00:55:27;12.93;;;9.45;;
63782;SDS011;49925;52.522;5.732;2023-04-24T00:57:54;12.55;;;6.07;;
63782;SDS011;49925;52.522;5.732;2023-04-24T01:00:22;9.98;;;6.35;;
63782;SDS011;49925;52.522;5.732;2023-04-24T01:02:49;10.40;;;5.65;;
63782;SDS011;49925;52.522;5.732;2023-04-24T01:05:18;8.88;;;4.85;;
63782;SDS011;49925;52.522;5.732;2023-04-24T01:07:45;8.50;;;4.75;;
63782;SDS011;49925;52.522;5.732;2023-04-24T01:10:18;6.00;;;4.57;;
63782;SDS011;49925;52.522;5.732;2023-04-24T01:12:46;8.65;;;4.10;;
63782;SDS011;49925;52.522;5.732;2023-04-24T01:15:13;8.95;;;4.78;;
63782;SDS011;49925;52.522;5.732;2023-04-24T01:17:41;7.82;;;4.90;;
63782;SDS011;49925;52.522;5.732;2023-04-24T01:20:09;9.82;;;5.20;;
63782;SDS011;49925;52.522;5.732;2023-04-24T01:22:37;5.72;;;4.60;;
63782;SDS011;49925;52.522;5.732;2023-04-24T01:25:04;5.90;;;4.07;;
63782;SDS011;49925;52.522;5.732;2023-04-24T01:27:32;6.35;;;3.90;;
63782;SDS011;49925;52.522;5.732;2023-04-24T01:29:59;5.10;;;3.25;;
63782;SDS011;49925;52.522;5.732;2023-04-24T01:32:27;3.60;;;2.80;;
63782;SDS011;49925;52.522;5.732;2023-04-24T01:34:54;4.85;;;3.00;;
63782;SDS011;49925;52.522;5.732;2023-04-24T01:37:22;3.80;;;2.88;;
63782;SDS011;49925;52.522;5.732;2023-04-24T01:39:49;4.60;;;3.15;;
63782;SDS011;49925;52.522;5.732;2023-04-24T01:42:16;3.78;;;2.85;;
63782;SDS011;49925;52.522;5.732;2023-04-24T01:44:43;5.22;;;3.10;;
63782;SDS011;49925;52.522;5.732;2023-04-24T01:47:12;3.90;;;2.75;;
63782;SDS011;49925;52.522;5.732;2023-04-24T01:49:39;6.25;;;3.00;;
63782;SDS011;49925;52.522;5.732;2023-04-24T01:52:07;4.53;;;3.30;;
63782;SDS011;49925;52.522;5.732;2023-04-24T01:54:34;5.93;;;3.05;;
63782;SDS011;49925;52.522;5.732;2023-04-24T01:57:01;6.68;;;3.00;;
63782;SDS011;49925;52.522;5.732;2023-04-24T01:59:28;3.65;;;2.75;;
63782;SDS011;49925;52.522;5.732;2023-04-24T02:01:57;4.75;;;3.10;;
63782;SDS011;49925;52.522;5.732;2023-04-24T02:04:24;4.68;;;3.10;;
63782;SDS011;49925;52.522;5.732;2023-04-24T02:06:51;7.43;;;2.90;;
63782;SDS011;49925;52.522;5.732;2023-04-24T02:09:19;4.00;;;2.30;;
63782;SDS011;49925;52.522;5.732;2023-04-24T02:11:46;4.25;;;2.15;;
63782;SDS011;49925;52.522;5.732;2023-04-24T02:14:13;2.70;;;1.70;;
63782;SDS011;49925;52.522;5.732;2023-04-24T02:16:40;3.60;;;1.70;;
63782;SDS011;49925;52.522;5.732;2023-04-24T02:19:07;1.83;;;1.50;;
63782;SDS011;49925;52.522;5.732;2023-04-24T02:21:34;8.02;;;1.80;;
63782;SDS011;49925;52.522;5.732;2023-04-24T02:24:02;3.20;;;1.60;;
63782;SDS011;49925;52.522;5.732;2023-04-24T02:26:29;2.78;;;1.60;;
63782;SDS011;49925;52.522;5.732;2023-04-24T02:28:58;3.72;;;1.70;;
63782;SDS011;49925;52.522;5.732;2023-04-24T02:31:25;4.47;;;2.42;;
63782;SDS011;49925;52.522;5.732;2023-04-24T02:33:52;3.30;;;2.58;;
63782;SDS011;49925;52.522;5.732;2023-04-24T02:36:19;3.90;;;2.60;;
63782;SDS011;49925;52.522;5.732;2023-04-24T02:38:47;4.15;;;2.60;;
63782;SDS011;49925;52.522;5.732;2023-04-24T02:41:14;2.92;;;2.17;;
63782;SDS011;49925;52.522;5.732;2023-04-24T02:43:41;3.72;;;2.00;;
63782;SDS011;49925;52.522;5.732;2023-04-24T02:46:08;5.03;;;2.17;;
63782;SDS011;49925;52.522;5.732;2023-04-24T02:48:36;3.83;;;1.42;;
63782;SDS011;49925;52.522;5.732;2023-04-24T02:51:03;2.13;;;1.40;;
63782;SDS011;49925;52.522;5.732;2023-04-24T02:53:30;4.22;;;1.40;;
63782;SDS011;49925;52.522;5.732;2023-04-24T02:55:57;2.55;;;1.33;;
63782;SDS011;49925;52.522;5.732;2023-04-24T02:58:25;2.65;;;1.40;;
63782;SDS011;49925;52.522;5.732;2023-04-24T03:00:53;7.03;;;1.33;;
63782;SDS011;49925;52.522;5.732;2023-04-24T03:03:24;1.85;;;1.40;;
63782;SDS011;49925;52.522;5.732;2023-04-24T03:05:52;2.15;;;1.33;;
63782;SDS011;49925;52.522;5.732;2023-04-24T03:08:19;2.72;;;1.40;;
63782;SDS011;49925;52.522;5.732;2023-04-24T03:10:46;2.08;;;1.30;;
63782;SDS011;49925;52.522;5.732;2023-04-24T03:13:15;1.08;;;0.98;;
63782;SDS011;49925;52.522;5.732;2023-04-24T03:15:42;3.03;;;1.10;;
63782;SDS011;49925;52.522;5.732;2023-04-24T03:18:09;2.88;;;1.10;;
63782;SDS011;49925;52.522;5.732;2023-04-24T03:20:36;1.13;;;0.88;;
63782;SDS011;49925;52.522;5.732;2023-04-24T03:23:03;2.97;;;1.25;;
63782;SDS011;49925;52.522;5.732;2023-04-24T03:25:31;2.47;;;0.98;;
63782;SDS011;49925;52.522;5.732;2023-04-24T03:27:58;2.08;;;1.10;;
63782;SDS011;49925;52.522;5.732;2023-04-24T03:30:25;3.20;;;1.00;;
63782;SDS011;49925;52.522;5.732;2023-04-24T03:32:52;1.73;;;0.98;;
63782;SDS011;49925;52.522;5.732;2023-04-24T03:35:20;2.13;;;1.10;;
63782;SDS011;49925;52.522;5.732;2023-04-24T03:37:48;3.20;;;1.35;;
63782;SDS011;49925;52.522;5.732;2023-04-24T03:40:15;3.90;;;1.60;;
63782;SDS011;49925;52.522;5.732;2023-04-24T03:42:42;5.40;;;1.42;;
63782;SDS011;49925;52.522;5.732;2023-04-24T03:45:09;2.42;;;1.33;;
63782;SDS011;49925;52.522;5.732;2023-04-24T05:04:53;8.23;;;2.47;;
63782;SDS011;49925;52.522;5.732;2023-04-24T05:07:21;7.32;;;2.42;;
63782;SDS011;49925;52.522;5.732;2023-04-24T05:09:48;5.13;;;2.63;;
63782;SDS011;49925;52.522;5.732;2023-04-24T05:12:15;6.20;;;2.72;;
63782;SDS011;49925;52.522;5.732;2023-04-24T05:14:42;5.07;;;2.40;;
63782;SDS011;49925;52.522;5.732;2023-04-24T05:17:09;6.70;;;2.97;;
63782;SDS011;49925;52.522;5.732;2023-04-24T05:19:37;7.38;;;3.13;;
63782;SDS011;49925;52.522;5.732;2023-04-24T05:22:08;9.13;;;2.90;;
63782;SDS011;49925;52.522;5.732;2023-04-24T05:24:36;4.70;;;2.60;;
63782;SDS011;49925;52.522;5.732;2023-04-24T05:27:03;4.05;;;2.63;;
63782;SDS011;49925;52.522;5.732;2023-04-24T05:29:33;4.85;;;2.85;;
63782;SDS011;49925;52.522;5.732;2023-04-24T05:32:01;6.18;;;2.65;;
63782;SDS011;49925;52.522;5.732;2023-04-24T05:34:28;4.82;;;3.13;;
63782;SDS011;49925;52.522;5.732;2023-04-24T05:36:55;5.20;;;2.90;;
63782;SDS011;49925;52.522;5.732;2023-04-24T05:39:22;7.47;;;2.80;;
63782;SDS011;49925;52.522;5.732;2023-04-24T05:41:51;8.07;;;3.25;;
63782;SDS011;49925;52.522;5.732;2023-04-24T05:44:18;9.77;;;3.30;;
63782;SDS011;49925;52.522;5.732;2023-04-24T05:46:45;8.52;;;3.60;;
63782;SDS011;49925;52.522;5.732;2023-04-24T05:49:13;8.95;;;3.53;;
63782;SDS011;49925;52.522;5.732;2023-04-24T05:51:40;5.25;;;3.60;;
63782;SDS011;49925;52.522;5.732;2023-04-24T05:54:07;9.48;;;3.65;;
63782;SDS011;49925;52.522;5.732;2023-04-24T05:56:34;8.10;;;3.55;;
63782;SDS011;49925;52.522;5.732;2023-04-24T05:59:01;7.50;;;3.83;;
63782;SDS011;49925;52.522;5.732;2023-04-24T06:01:29;16.15;;;4.15;;
63782;SDS011;49925;52.522;5.732;2023-04-24T06:03:57;8.20;;;4.10;;
63782;SDS011;49925;52.522;5.732;2023-04-24T06:06:25;9.93;;;3.80;;
63782;SDS011;49925;52.522;5.732;2023-04-24T06:08:53;9.20;;;3.70;;
63782;SDS011;49925;52.522;5.732;2023-04-24T06:11:20;8.75;;;3.20;;
63782;SDS011;49925;52.522;5.732;2023-04-24T06:13:47;11.15;;;3.83;;
63782;SDS011;49925;52.522;5.732;2023-04-24T06:16:15;11.82;;;4.10;;
63782;SDS011;49925;52.522;5.732;2023-04-24T06:18:42;12.88;;;4.55;;
63782;SDS011;49925;52.522;5.732;2023-04-24T06:21:09;10.98;;;4.07;;
63782;SDS011;49925;52.522;5.732;2023-04-24T06:23:36;8.95;;;3.25;;
63782;SDS011;49925;52.522;5.732;2023-04-24T06:26:03;4.82;;;2.90;;
63782;SDS011;49925;52.522;5.732;2023-04-24T06:28:31;7.65;;;3.00;;
63782;SDS011;49925;52.522;5.732;2023-04-24T06:30:58;14.05;;;3.10;;
63782;SDS011;49925;52.522;5.732;2023-04-24T06:33:32;9.25;;;3.40;;
63782;SDS011;49925;52.522;5.732;2023-04-24T06:35:59;10.60;;;3.58;;
63782;SDS011;49925;52.522;5.732;2023-04-24T06:38:30;17.35;;;4.78;;
63782;SDS011;49925;52.522;5.732;2023-04-24T06:40:58;20.33;;;7.05;;
63782;SDS011;49925;52.522;5.732;2023-04-24T06:43:25;25.65;;;8.73;;
63782;SDS011;49925;52.522;5.732;2023-04-24T06:45:52;21.08;;;9.20;;
63782;SDS011;49925;52.522;5.732;2023-04-24T06:48:20;22.52;;;10.65;;
63782;SDS011;49925;52.522;5.732;2023-04-24T06:50:47;31.75;;;11.25;;
63782;SDS011;49925;52.522;5.732;2023-04-24T06:53:14;34.13;;;10.52;;
63782;SDS011;49925;52.522;5.732;2023-04-24T06:55:41;28.33;;;12.43;;
63782;SDS011;49925;52.522;5.732;2023-04-24T06:58:09;22.50;;;11.15;;
63782;SDS011;49925;52.522;5.732;2023-04-24T07:00:37;43.40;;;15.15;;
63782;SDS011;49925;52.522;5.732;2023-04-24T07:03:04;36.30;;;15.20;;
63782;SDS011;49925;52.522;5.732;2023-04-24T07:05:32;32.45;;;14.25;;
63782;SDS011;49925;52.522;5.732;2023-04-24T07:08:04;29.90;;;11.60;;
63782;SDS011;49925;52.522;5.732;2023-04-24T07:10:33;25.67;;;10.80;;
63782;SDS011;49925;52.522;5.732;2023-04-24T07:13:01;22.75;;;9.63;;
63782;SDS011;49925;52.522;5.732;2023-04-24T07:15:29;15.52;;;7.75;;
63782;SDS011;49925;52.522;5.732;2023-04-24T07:17:58;17.30;;;7.90;;
63782;SDS011;49925;52.522;5.732;2023-04-24T07:20:30;14.38;;;6.75;;
63782;SDS011;49925;52.522;5.732;2023-04-24T07:22:57;14.70;;;7.45;;
63782;SDS011;49925;52.522;5.732;2023-04-24T07:25:24;21.00;;;8.80;;
63782;SDS011;49925;52.522;5.732;2023-04-24T07:27:52;16.38;;;8.32;;
63782;SDS011;49925;52.522;5.732;2023-04-24T07:30:19;28.40;;;10.73;;
63782;SDS011;49925;52.522;5.732;2023-04-24T07:32:50;29.17;;;11.60;;
63782;SDS011;49925;52.522;5.732;2023-04-24T07:35:17;33.35;;;12.02;;
63782;SDS011;49925;52.522;5.732;2023-04-24T07:37:47;27.67;;;10.40;;
63782;SDS011;49925;52.522;5.732;2023-04-24T07:40:14;25.77;;;10.40;;
63782;SDS011;49925;52.522;5.732;2023-04-24T07:42:43;28.35;;;10.43;;
63782;SDS011;49925;52.522;5.732;2023-04-24T07:45:10;35.40;;;10.90;;
63782;SDS011;49925;52.522;5.732;2023-04-24T07:47:37;26.20;;;9.75;;
63782;SDS011;49925;52.522;5.732;2023-04-24T07:50:06;30.83;;;9.82;;
63782;SDS011;49925;52.522;5.732;2023-04-24T07:52:33;23.98;;;8.88;;
63782;SDS011;49925;52.522;5.732;2023-04-24T07:55:00;18.90;;;8.32;;
63782;SDS011;49925;52.522;5.732;2023-04-24T07:57:28;21.05;;;8.88;;
63782;SDS011;49925;52.522;5.732;2023-04-24T07:59:56;25.35;;;8.77;;
63782;SDS011;49925;52.522;5.732;2023-04-24T08:02:23;20.48;;;8.50;;
63782;SDS011;49925;52.522;5.732;2023-04-24T08:04:53;23.20;;;7.95;;
63782;SDS011;49925;52.522;5.732;2023-04-24T08:07:21;23.23;;;8.40;;
63782;SDS011;49925;52.522;5.732;2023-04-24T08:09:49;18.13;;;8.55;;
63782;SDS011;49925;52.522;5.732;2023-04-24T08:12:16;16.25;;;7.72;;
63782;SDS011;49925;52.522;5.732;2023-04-24T08:14:43;24.95;;;8.30;;
63782;SDS011;49925;52.522;5.732;2023-04-24T08:17:10;20.38;;;8.07;;
63782;SDS011;49925;52.522;5.732;2023-04-24T08:19:39;22.20;;;8.05;;
63782;SDS011;49925;52.522;5.732;2023-04-24T08:22:14;26.08;;;7.80;;
63782;SDS011;49925;52.522;5.732;2023-04-24T08:24:42;25.83;;;8.40;;
63782;SDS011;49925;52.522;5.732;2023-04-24T08:27:13;22.17;;;7.28;;
63782;SDS011;49925;52.522;5.732;2023-04-24T08:29:40;16.80;;;6.88;;
63782;SDS011;49925;52.522;5.732;2023-04-24T08:32:07;24.63;;;7.22;;
63782;SDS011;49925;52.522;5.732;2023-04-24T08:34:37;20.23;;;7.15;;
63782;SDS011;49925;52.522;5.732;2023-04-24T08:37:05;20.55;;;7.00;;
63782;SDS011;49925;52.522;5.732;2023-04-24T08:39:32;16.85;;;5.05;;
63782;SDS011;49925;52.522;5.732;2023-04-24T08:41:59;18.58;;;6.15;;
63782;SDS011;49925;52.522;5.732;2023-04-24T08:44:32;19.67;;;5.70;;
63782;SDS011;49925;52.522;5.732;2023-04-24T08:47:00;26.98;;;5.68;;
63782;SDS011;49925;52.522;5.732;2023-04-24T08:49:28;21.90;;;5.82;;
63782;SDS011;49925;52.522;5.732;2023-04-24T08:51:57;22.58;;;6.35;;
63782;SDS011;49925;52.522;5.732;2023-04-24T08:54:26;16.27;;;5.78;;
63782;SDS011;49925;52.522;5.732;2023-04-24T08:56:53;24.17;;;6.07;;
63782;SDS011;49925;52.522;5.732;2023-04-24T08:59:22;24.98;;;7.93;;
63782;SDS011;49925;52.522;5.732;2023-04-24T09:01:49;23.67;;;5.85;;
63782;SDS011;49925;52.522;5.732;2023-04-24T09:04:18;21.20;;;5.28;;
63782;SDS011;49925;52.522;5.732;2023-04-24T09:06:48;28.95;;;5.88;;
63782;SDS011;49925;52.522;5.732;2023-04-24T09:09:16;20.70;;;6.13;;
63782;SDS011;49925;52.522;5.732;2023-04-24T09:11:44;31.17;;;6.40;;
63782;SDS011;49925;52.522;5.732;2023-04-24T09:14:12;21.27;;;6.30;;
63782;SDS011;49925;52.522;5.732;2023-04-24T09:16:41;23.02;;;6.95;;
63782;SDS011;49925;52.522;5.732;2023-04-24T09:19:08;19.50;;;5.90;;
63782;SDS011;49925;52.522;5.732;2023-04-24T09:21:35;14.30;;;5.03;;
63782;SDS011;49925;52.522;5.732;2023-04-24T09:24:06;22.92;;;5.28;;
63782;SDS011;49925;52.522;5.732;2023-04-24T09:26:40;26.77;;;5.50;;
63782;SDS011;49925;52.522;5.732;2023-04-24T09:29:13;29.55;;;5.88;;
63782;SDS011;49925;52.522;5.732;2023-04-24T09:31:44;25.38;;;5.30;;
63782;SDS011;49925;52.522;5.732;2023-04-24T09:34:12;25.58;;;6.28;;
63782;SDS011;49925;52.522;5.732;2023-04-24T09:36:41;18.27;;;4.97;;
63782;SDS011;49925;52.522;5.732;2023-04-24T09:39:09;37.00;;;6.03;;
63782;SDS011;49925;52.522;5.732;2023-04-24T09:41:52;27.00;;;5.97;;
63782;SDS011;49925;52.522;5.732;2023-04-24T09:44:22;28.23;;;5.35;;
63782;SDS011;49925;52.522;5.732;2023-04-24T09:46:52;33.38;;;4.78;;
63782;SDS011;49925;52.522;5.732;2023-04-24T09:49:25;33.45;;;4.90;;
63782;SDS011;49925;52.522;5.732;2023-04-24T09:52:05;42.00;;;4.55;;
63782;SDS011;49925;52.522;5.732;2023-04-24T09:54:37;23.58;;;4.03;;
63782;SDS011;49925;52.522;5.732;2023-04-24T09:57:07;22.50;;;3.90;;
63782;SDS011;49925;52.522;5.732;2023-04-24T09:59:35;22.30;;;3.65;;
63782;SDS011;49925;52.522;5.732;2023-04-24T10:02:20;33.45;;;4.30;;
63782;SDS011;49925;52.522;5.732;2023-04-24T10:04:57;26.05;;;4.45;;
63782;SDS011;49925;52.522;5.732;2023-04-24T10:07:28;24.25;;;4.63;;
63782;SDS011;49925;52.522;5.732;2023-04-24T10:10:02;11.43;;;2.90;;
63782;SDS011;49925;52.522;5.732;2023-04-24T10:12:29;18.58;;;3.30;;
63782;SDS011;49925;52.522;5.732;2023-04-24T10:14:57;9.98;;;2.50;;
63782;SDS011;49925;52.522;5.732;2023-04-24T10:17:26;23.33;;;3.63;;
63782;SDS011;49925;52.522;5.732;2023-04-24T10:19:54;19.70;;;3.45;;
63782;SDS011;49925;52.522;5.732;2023-04-24T10:22:22;24.77;;;4.00;;
63782;SDS011;49925;52.522;5.732;2023-04-24T10:24:49;11.57;;;3.10;;
63782;SDS011;49925;52.522;5.732;2023-04-24T10:27:17;12.23;;;2.92;;
63782;SDS011;49925;52.522;5.732;2023-04-24T10:29:44;15.63;;;4.15;;
63782;SDS011;49925;52.522;5.732;2023-04-24T10:32:12;10.00;;;3.08;;
63782;SDS011;49925;52.522;5.732;2023-04-24T10:34:39;22.60;;;3.20;;
63782;SDS011;49925;52.522;5.732;2023-04-24T10:37:06;19.05;;;3.75;;
63782;SDS011;49925;52.522;5.732;2023-04-24T10:39:33;14.02;;;3.40;;
63782;SDS011;49925;52.522;5.732;2023-04-24T10:42:01;17.88;;;3.90;;
63782;SDS011;49925;52.522;5.732;2023-04-24T10:44:35;11.30;;;3.20;;
63782;SDS011;49925;52.522;5.732;2023-04-24T10:47:03;8.57;;;3.05;;
63782;SDS011;49925;52.522;5.732;2023-04-24T10:49:31;12.45;;;2.85;;
63782;SDS011;49925;52.522;5.732;2023-04-24T10:52:02;12.90;;;2.70;;
63782;SDS011;49925;52.522;5.732;2023-04-24T10:54:40;15.10;;;2.95;;
63782;SDS011;49925;52.522;5.732;2023-04-24T10:59:46;10.57;;;2.67;;
63782;SDS011;49925;52.522;5.732;2023-04-24T11:02:15;14.85;;;3.05;;
63782;SDS011;49925;52.522;5.732;2023-04-24T11:04:43;18.40;;;3.10;;
63782;SDS011;49925;52.522;5.732;2023-04-24T11:07:11;19.70;;;5.15;;
63782;SDS011;49925;52.522;5.732;2023-04-24T11:09:39;13.93;;;4.45;;
63782;SDS011;49925;52.522;5.732;2023-04-24T11:12:10;9.23;;;3.50;;
63782;SDS011;49925;52.522;5.732;2023-04-24T11:17:28;16.65;;;4.35;;
63782;SDS011;49925;52.522;5.732;2023-04-24T11:20:04;23.52;;;5.68;;
63782;SDS011;49925;52.522;5.732;2023-04-24T11:22:52;12.70;;;3.70;;
63782;SDS011;49925;52.522;5.732;2023-04-24T11:25:21;17.75;;;3.30;;
63782;SDS011;49925;52.522;5.732;2023-04-24T11:27:49;10.27;;;2.60;;
63782;SDS011;49925;52.522;5.732;2023-04-24T11:30:17;12.27;;;4.00;;
63782;SDS011;49925;52.522;5.732;2023-04-24T11:32:52;11.43;;;3.15;;
63782;SDS011;49925;52.522;5.732;2023-04-24T11:35:20;10.05;;;2.45;;
63782;SDS011;49925;52.522;5.732;2023-04-24T11:37:52;16.02;;;3.25;;
63782;SDS011;49925;52.522;5.732;2023-04-24T11:40:31;15.55;;;2.45;;
63782;SDS011;49925;52.522;5.732;2023-04-24T11:43:02;12.27;;;4.07;;
63782;SDS011;49925;52.522;5.732;2023-04-24T11:45:33;25.20;;;4.72;;
63782;SDS011;49925;52.522;5.732;2023-04-24T11:48:00;19.27;;;5.38;;
63782;SDS011;49925;52.522;5.732;2023-04-24T11:50:33;5.40;;;2.20;;
63782;SDS011;49925;52.522;5.732;2023-04-24T11:53:00;20.20;;;6.07;;
63782;SDS011;49925;52.522;5.732;2023-04-24T11:55:28;14.43;;;4.25;;
63782;SDS011;49925;52.522;5.732;2023-04-24T11:57:58;18.52;;;3.80;;
63782;SDS011;49925;52.522;5.732;2023-04-24T12:00:30;14.63;;;4.50;;
63782;SDS011;49925;52.522;5.732;2023-04-24T12:03:07;11.88;;;2.95;;
63782;SDS011;49925;52.522;5.732;2023-04-24T12:05:38;6.80;;;2.10;;
63782;SDS011;49925;52.522;5.732;2023-04-24T12:08:06;7.10;;;2.22;;
63782;SDS011;49925;52.522;5.732;2023-04-24T12:10:34;13.65;;;2.60;;
63782;SDS011;49925;52.522;5.732;2023-04-24T12:13:01;17.23;;;2.80;;
63782;SDS011;49925;52.522;5.732;2023-04-24T12:15:32;14.18;;;3.20;;
63782;SDS011;49925;52.522;5.732;2023-04-24T12:18:03;14.02;;;2.88;;
63782;SDS011;49925;52.522;5.732;2023-04-24T12:20:31;12.35;;;2.72;;
63782;SDS011;49925;52.522;5.732;2023-04-24T12:23:00;8.93;;;2.30;;
63782;SDS011;49925;52.522;5.732;2023-04-24T12:25:29;9.68;;;2.42;;
63782;SDS011;49925;52.522;5.732;2023-04-24T12:30:39;16.40;;;3.08;;
63782;SDS011;49925;52.522;5.732;2023-04-24T12:33:11;12.60;;;3.40;;
63782;SDS011;49925;52.522;5.732;2023-04-24T12:35:39;13.98;;;2.40;;
63782;SDS011;49925;52.522;5.732;2023-04-24T12:38:11;12.10;;;2.47;;
63782;SDS011;49925;52.522;5.732;2023-04-24T12:40:40;12.52;;;2.38;;
63782;SDS011;49925;52.522;5.732;2023-04-24T12:43:15;11.55;;;2.38;;
63782;SDS011;49925;52.522;5.732;2023-04-24T12:45:44;11.25;;;2.25;;
63782;SDS011;49925;52.522;5.732;2023-04-24T12:48:14;12.95;;;2.85;;
63782;SDS011;49925;52.522;5.732;2023-04-24T12:50:42;15.25;;;2.95;;
63782;SDS011;49925;52.522;5.732;2023-04-24T12:53:12;10.88;;;2.50;;
63782;SDS011;49925;52.522;5.732;2023-04-24T12:55:40;11.90;;;2.83;;
63782;SDS011;49925;52.522;5.732;2023-04-24T12:58:07;19.20;;;3.30;;
63782;SDS011;49925;52.522;5.732;2023-04-24T13:00:35;15.43;;;2.72;;
63782;SDS011;49925;52.522;5.732;2023-04-24T13:03:02;12.07;;;2.60;;
63782;SDS011;49925;52.522;5.732;2023-04-24T13:05:33;14.05;;;2.70;;
63782;SDS011;49925;52.522;5.732;2023-04-24T13:08:01;13.63;;;3.30;;
63782;SDS011;49925;52.522;5.732;2023-04-24T13:10:28;22.77;;;2.90;;
63782;SDS011;49925;52.522;5.732;2023-04-24T13:12:59;11.85;;;2.60;;
63782;SDS011;49925;52.522;5.732;2023-04-24T13:15:27;12.10;;;3.03;;
63782;SDS011;49925;52.522;5.732;2023-04-24T13:17:58;12.23;;;3.60;;
63782;SDS011;49925;52.522;5.732;2023-04-24T13:20:26;9.23;;;2.83;;
63782;SDS011;49925;52.522;5.732;2023-04-24T13:22:53;10.10;;;2.50;;
63782;SDS011;49925;52.522;5.732;2023-04-24T13:25:20;10.10;;;2.70;;
63782;SDS011;49925;52.522;5.732;2023-04-24T13:27:50;12.07;;;2.72;;
63782;SDS011;49925;52.522;5.732;2023-04-24T13:33:16;14.73;;;2.55;;
63782;SDS011;49925;52.522;5.732;2023-04-24T13:35:58;15.00;;;2.67;;
63782;SDS011;49925;52.522;5.732;2023-04-24T13:38:28;14.20;;;2.25;;
63782;SDS011;49925;52.522;5.732;2023-04-24T13:41:01;10.15;;;2.20;;
63782;SDS011;49925;52.522;5.732;2023-04-24T13:43:42;14.65;;;2.45;;
63782;SDS011;49925;52.522;5.732;2023-04-24T13:52:23;20.17;;;3.60;;
63782;SDS011;49925;52.522;5.732;2023-04-24T13:54:57;24.52;;;3.28;;
63782;SDS011;49925;52.522;5.732;2023-04-24T13:57:37;19.33;;;3.97;;
63782;SDS011;49925;52.522;5.732;2023-04-24T14:00:40;19.48;;;4.60;;
63782;SDS011;49925;52.522;5.732;2023-04-24T14:03:07;17.67;;;3.75;;
63782;SDS011;49925;52.522;5.732;2023-04-24T14:05:40;21.40;;;4.53;;
63782;SDS011;49925;52.522;5.732;2023-04-24T14:08:10;24.90;;;4.22;;
63782;SDS011;49925;52.522;5.732;2023-04-24T14:10:49;23.90;;;4.05;;
63782;SDS011;49925;52.522;5.732;2023-04-24T14:13:17;17.92;;;3.92;;
63782;SDS011;49925;52.522;5.732;2023-04-24T14:15:44;20.92;;;3.72;;
63782;SDS011;49925;52.522;5.732;2023-04-24T14:18:11;19.92;;;4.68;;
63782;SDS011;49925;52.522;5.732;2023-04-24T14:20:38;24.35;;;4.32;;
63782;SDS011;49925;52.522;5.732;2023-04-24T14:23:06;23.45;;;4.32;;
63782;SDS011;49925;52.522;5.732;2023-04-24T14:25:33;25.50;;;4.20;;
63782;SDS011;49925;52.522;5.732;2023-04-24T14:28:04;38.75;;;5.90;;
63782;SDS011;49925;52.522;5.732;2023-04-24T14:30:32;22.73;;;4.90;;
63782;SDS011;49925;52.522;5.732;2023-04-24T14:33:00;19.60;;;4.30;;
63782;SDS011;49925;52.522;5.732;2023-04-24T14:35:27;28.90;;;5.95;;
63782;SDS011;49925;52.522;5.732;2023-04-24T14:37:57;20.48;;;3.70;;
63782;SDS011;49925;52.522;5.732;2023-04-24T14:40:26;21.15;;;4.43;;
63782;SDS011;49925;52.522;5.732;2023-04-24T14:43:13;23.67;;;4.30;;
63782;SDS011;49925;52.522;5.732;2023-04-24T14:45:41;23.02;;;4.05;;
63782;SDS011;49925;52.522;5.732;2023-04-24T14:48:08;27.42;;;5.38;;
63782;SDS011;49925;52.522;5.732;2023-04-24T14:50:35;26.55;;;4.45;;
63782;SDS011;49925;52.522;5.732;2023-04-24T14:53:02;18.48;;;3.42;;
63782;SDS011;49925;52.522;5.732;2023-04-24T14:55:33;18.17;;;3.65;;
63782;SDS011;49925;52.522;5.732;2023-04-24T14:58:02;16.95;;;3.50;;
63782;SDS011;49925;52.522;5.732;2023-04-24T15:00:30;18.42;;;3.35;;
63782;SDS011;49925;52.522;5.732;2023-04-24T15:02:58;16.35;;;3.45;;
63782;SDS011;49925;52.522;5.732;2023-04-24T15:05:28;17.98;;;3.67;;
63782;SDS011;49925;52.522;5.732;2023-04-24T15:07:57;20.13;;;4.10;;
63782;SDS011;49925;52.522;5.732;2023-04-24T15:10:25;12.85;;;3.53;;
63782;SDS011;49925;52.522;5.732;2023-04-24T15:12:52;26.42;;;4.90;;
63782;SDS011;49925;52.522;5.732;2023-04-24T15:15:19;20.38;;;4.63;;
63782;SDS011;49925;52.522;5.732;2023-04-24T15:17:46;19.25;;;4.53;;
63782;SDS011;49925;52.522;5.732;2023-04-24T15:20:14;25.08;;;4.40;;
63782;SDS011;49925;52.522;5.732;2023-04-24T15:22:41;21.58;;;4.40;;
63782;SDS011;49925;52.522;5.732;2023-04-24T15:25:09;25.20;;;4.05;;
63782;SDS011;49925;52.522;5.732;2023-04-24T15:27:40;32.85;;;5.93;;
63782;SDS011;49925;52.522;5.732;2023-04-24T15:30:12;18.15;;;4.22;;
63782;SDS011;49925;52.522;5.732;2023-04-24T15:32:40;21.08;;;4.40;;
63782;SDS011;49925;52.522;5.732;2023-04-24T15:35:07;18.83;;;4.22;;
63782;SDS011;49925;52.522;5.732;2023-04-24T15:37:36;17.17;;;3.50;;
63782;SDS011;49925;52.522;5.732;2023-04-24T15:40:04;22.77;;;2.92;;
63782;SDS011;49925;52.522;5.732;2023-04-24T15:42:34;18.42;;;4.03;;
63782;SDS011;49925;52.522;5.732;2023-04-24T15:45:01;17.80;;;3.20;;
63782;SDS011;49925;52.522;5.732;2023-04-24T15:47:30;18.92;;;4.63;;
63782;SDS011;49925;52.522;5.732;2023-04-24T15:49:58;21.70;;;4.15;;
63782;SDS011;49925;52.522;5.732;2023-04-24T15:52:29;12.00;;;3.38;;
63782;SDS011;49925;52.522;5.732;2023-04-24T15:54:59;26.58;;;3.60;;
63782;SDS011;49925;52.522;5.732;2023-04-24T15:57:31;14.13;;;3.67;;
63782;SDS011;49925;52.522;5.732;2023-04-24T15:59:58;16.52;;;3.65;;
63782;SDS011;49925;52.522;5.732;2023-04-24T16:02:29;16.80;;;3.80;;
63782;SDS011;49925;52.522;5.732;2023-04-24T16:05:00;13.73;;;3.33;;
63782;SDS011;49925;52.522;5.732;2023-04-24T16:07:30;15.17;;;3.80;;
63782;SDS011;49925;52.522;5.732;2023-04-24T16:09:57;15.90;;;3.83;;
63782;SDS011;49925;52.522;5.732;2023-04-24T16:12:25;16.08;;;3.50;;
63782;SDS011;49925;52.522;5.732;2023-04-24T16:14:53;12.30;;;3.65;;
63782;SDS011;49925;52.522;5.732;2023-04-24T16:17:20;22.70;;;3.63;;
63782;SDS011;49925;52.522;5.732;2023-04-24T16:19:48;24.17;;;4.88;;
63782;SDS011;49925;52.522;5.732;2023-04-24T16:22:15;20.92;;;4.28;;